sim
Sign-in with your pilot id or email,
or register
Callsign
Passwort

Schedule Details

Flight Number: OEO5258
Departure: Zurich Airport (LSZH) at 08:45
Arrival: Damascus International Airport (OSDI) at 12:40

Weather Information
Getting current METAR information for LSZH 282350Z VRB01KT CAVOK M01/M02 Q1031 NOSIG
Getting current METAR information for OSDI 010000Z 21014KT CAVOK 08/06 Q1017

Schedule Frequency

Route Map